createdAt,value
2023-05-06T00:00:34.550Z,99489.00
2023-05-06T00:03:02.634Z,99484.00
2023-05-06T00:05:30.586Z,99476.00
2023-05-06T00:07:58.692Z,99471.00
2023-05-06T00:10:26.706Z,99461.00
2023-05-06T00:12:54.618Z,99455.00
2023-05-06T00:15:24.212Z,99447.00
2023-05-06T00:17:52.143Z,99446.00
2023-05-06T00:20:20.653Z,99460.00
2023-05-06T00:22:49.041Z,99444.00
2023-05-06T00:25:16.974Z,99447.00
2023-05-06T00:27:44.876Z,99438.00
2023-05-06T00:30:14.016Z,99439.00
2023-05-06T00:32:43.295Z,99439.00
2023-05-06T00:35:12.059Z,99439.00
2023-05-06T00:37:39.991Z,99430.00
2023-05-06T00:40:10.587Z,99429.00
2023-05-06T00:42:38.488Z,99424.00
2023-05-06T00:45:08.428Z,99426.00
2023-05-06T00:47:36.649Z,99423.00
2023-05-06T00:50:07.480Z,99417.00
2023-05-06T00:52:35.843Z,99429.00
2023-05-06T00:55:04.400Z,99422.00
2023-05-06T00:57:32.593Z,99426.00
2023-05-06T01:00:00.538Z,99423.00
2023-05-06T01:02:36.473Z,99423.00
2023-05-06T01:05:16.715Z,99423.00
2023-05-06T01:07:57.233Z,99411.00
2023-05-06T01:10:34.661Z,99416.00
2023-05-06T01:13:13.036Z,99406.00
2023-05-06T01:15:46.415Z,99417.00
2023-05-06T01:18:18.765Z,99406.00
2023-05-06T01:20:50.939Z,99413.00
2023-05-06T01:23:20.855Z,99404.00
2023-05-06T01:25:51.829Z,99402.00
2023-05-06T01:28:19.700Z,99401.00
2023-05-06T01:31:11.833Z,99388.00
2023-05-06T01:33:50.758Z,99403.00
2023-05-06T01:36:29.900Z,99391.00
2023-05-06T01:39:11.703Z,99394.00
2023-05-06T01:41:43.088Z,99396.00
2023-05-06T01:44:13.245Z,99396.00
2023-05-06T01:46:43.853Z,99397.00
2023-05-06T01:49:14.124Z,99401.00
2023-05-06T01:51:47.714Z,99401.00
2023-05-06T01:54:16.955Z,99396.00
2023-05-06T01:56:46.537Z,99388.00
2023-05-06T01:59:16.095Z,99395.00
2023-05-06T02:01:44.025Z,99398.00
2023-05-06T02:04:12.050Z,99397.00
2023-05-06T02:06:40.736Z,99400.00
2023-05-06T02:09:08.598Z,99407.00
2023-05-06T02:11:43.277Z,99408.00
2023-05-06T02:14:11.401Z,99400.00
2023-05-06T02:16:39.382Z,99392.00
2023-05-06T02:19:07.424Z,99388.00
2023-05-06T02:21:35.856Z,99397.00
2023-05-06T02:24:03.765Z,99392.00
2023-05-06T02:26:32.132Z,99390.00
2023-05-06T02:29:01.309Z,99394.00
2023-05-06T02:31:29.205Z,99396.00
2023-05-06T02:33:57.052Z,99396.00
2023-05-06T02:36:24.948Z,99401.00
2023-05-06T02:38:54.661Z,99393.00
2023-05-06T02:41:22.662Z,99389.00
2023-05-06T02:43:50.618Z,99398.00
2023-05-06T02:46:20.217Z,99391.00
2023-05-06T02:48:48.142Z,99388.00
2023-05-06T02:51:15.964Z,99385.00
2023-05-06T02:53:43.850Z,99391.00
2023-05-06T02:56:11.713Z,99394.00
2023-05-06T02:58:39.580Z,99391.00
2023-05-06T03:01:07.487Z,99389.00
2023-05-06T03:03:36.900Z,99383.00
2023-05-06T03:06:05.199Z,99382.00
2023-05-06T03:08:33.287Z,99381.00
2023-05-06T03:11:01.874Z,99388.00
2023-05-06T03:13:30.045Z,99382.00
2023-05-06T03:15:58.183Z,99387.00
2023-05-06T03:18:26.191Z,99378.00
2023-05-06T03:20:55.552Z,99379.00
2023-05-06T03:23:23.586Z,99377.00
2023-05-06T03:25:51.719Z,99376.00
2023-05-06T03:28:21.234Z,99379.00
2023-05-06T03:30:50.325Z,99383.00
2023-05-06T03:33:18.397Z,99388.00
2023-05-06T03:35:46.314Z,99388.00
2023-05-06T03:38:15.684Z,99391.00
2023-05-06T03:40:50.752Z,99391.00
2023-05-06T03:43:18.708Z,99379.00
2023-05-06T03:45:50.255Z,99394.00
2023-05-06T03:48:18.199Z,99396.00
2023-05-06T03:50:46.182Z,99398.00
2023-05-06T03:53:16.646Z,99392.00
2023-05-06T03:55:46.464Z,99393.00
2023-05-06T03:58:14.825Z,99389.00
2023-05-06T04:00:45.587Z,99400.00
2023-05-06T04:03:13.855Z,99391.00
2023-05-06T04:05:49.934Z,99401.00
2023-05-06T04:08:21.529Z,99404.00
2023-05-06T04:10:49.624Z,99394.00
2023-05-06T04:13:26.426Z,99401.00
2023-05-06T04:15:54.840Z,99403.00
2023-05-06T04:18:27.562Z,99416.00
2023-05-06T04:21:00.984Z,99412.00
2023-05-06T04:23:32.442Z,99415.00
2023-05-06T04:26:01.169Z,99412.00
2023-05-06T04:28:31.709Z,99415.00
2023-05-06T04:30:59.975Z,99427.00
2023-05-06T04:33:36.858Z,99420.00
2023-05-06T04:36:10.588Z,99402.00
2023-05-06T04:38:44.434Z,99417.00
2023-05-06T04:41:12.918Z,99416.00
2023-05-06T04:43:41.456Z,99423.00
2023-05-06T04:46:16.122Z,99424.00
2023-05-06T04:48:45.826Z,99423.00
2023-05-06T04:51:15.478Z,99423.00
2023-05-06T04:53:44.734Z,99426.00
2023-05-06T04:56:12.687Z,99434.00
2023-05-06T04:58:40.702Z,99433.00
2023-05-06T05:01:11.440Z,99437.00
2023-05-06T05:03:39.443Z,99438.00
2023-05-06T05:06:09.998Z,99440.00
2023-05-06T05:08:37.954Z,99439.00
2023-05-06T05:11:08.595Z,99448.00
2023-05-06T05:13:36.538Z,99449.00
2023-05-06T05:16:06.890Z,99452.00
2023-05-06T05:18:37.728Z,99454.00
2023-05-06T05:21:12.911Z,99453.00
2023-05-06T05:23:40.915Z,99448.00
2023-05-06T05:26:11.453Z,99455.00
2023-05-06T05:28:40.801Z,99459.00
2023-05-06T05:31:10.327Z,99455.00
2023-05-06T05:33:38.833Z,99459.00
2023-05-06T05:36:12.348Z,99458.00
2023-05-06T05:38:40.290Z,99457.00
2023-05-06T05:41:10.161Z,99462.00
2023-05-06T05:43:38.083Z,99458.00
2023-05-06T05:46:06.299Z,99454.00
2023-05-06T05:48:34.903Z,99465.00
2023-05-06T05:51:04.968Z,99457.00
2023-05-06T05:53:33.691Z,99467.00
2023-05-06T05:56:01.691Z,99468.00
2023-05-06T05:58:31.594Z,99469.00
2023-05-06T06:01:01.697Z,99468.00
2023-05-06T06:03:30.113Z,99474.00
2023-05-06T06:05:58.186Z,99470.00
2023-05-06T06:08:27.462Z,99477.00
2023-05-06T06:10:57.262Z,99476.00
2023-05-06T06:13:32.089Z,99478.00
2023-05-06T06:16:02.389Z,99477.00
2023-05-06T06:18:30.574Z,99473.00
2023-05-06T06:20:58.520Z,99475.00
2023-05-06T06:23:26.838Z,99484.00
2023-05-06T06:25:54.797Z,99485.00
2023-05-06T06:28:22.804Z,99496.00
2023-05-06T06:30:52.434Z,99486.00
2023-05-06T06:33:20.386Z,99491.00
2023-05-06T06:35:48.284Z,99500.00
2023-05-06T06:38:16.150Z,99497.00
2023-05-06T06:40:44.023Z,99495.00
2023-05-06T06:43:11.932Z,99503.00
2023-05-06T06:45:59.672Z,99509.00
2023-05-06T06:48:27.722Z,99510.00
2023-05-06T06:50:55.628Z,99512.00
2023-05-06T06:53:23.525Z,99523.00
2023-05-06T06:55:51.414Z,99529.00
2023-05-06T06:58:19.284Z,99519.00
2023-05-06T07:00:47.221Z,99533.00
2023-05-06T07:03:19.333Z,99528.00
2023-05-06T07:05:47.469Z,99529.00
2023-05-06T07:08:16.956Z,99541.00
2023-05-06T07:10:44.890Z,99538.00
2023-05-06T07:13:12.849Z,99533.00
2023-05-06T07:15:40.777Z,99536.00
2023-05-06T07:18:08.737Z,99535.00
2023-05-06T07:20:37.978Z,99533.00
2023-05-06T07:23:06.228Z,99545.00
2023-05-06T07:25:35.363Z,99542.00
2023-05-06T07:28:03.263Z,99547.00
2023-05-06T07:30:31.212Z,99549.00
2023-05-06T07:32:59.185Z,99554.00
2023-05-06T07:35:27.256Z,99554.00
2023-05-06T07:37:56.709Z,99556.00
2023-05-06T07:40:24.895Z,99566.00
2023-05-06T07:42:53.685Z,99568.00
2023-05-06T07:45:23.722Z,99566.00
2023-05-06T07:47:52.183Z,99568.00
2023-05-06T07:50:20.204Z,99557.00
2023-05-06T07:52:48.132Z,99573.00
2023-05-06T07:55:17.432Z,99579.00
2023-05-06T07:57:45.405Z,99582.00
2023-05-06T08:00:15.080Z,99587.00
2023-05-06T08:02:47.908Z,99590.00
2023-05-06T08:05:17.284Z,99584.00
2023-05-06T08:07:45.839Z,99587.00
2023-05-06T08:10:13.921Z,99585.00
2023-05-06T08:12:44.163Z,99583.00
2023-05-06T08:15:13.767Z,99590.00
2023-05-06T08:17:42.687Z,99591.00
2023-05-06T12:50:47.827Z,99665.00
2023-05-06T12:53:33.121Z,99680.00
2023-05-06T12:56:01.069Z,99671.00
2023-05-06T12:58:29.137Z,99671.00
2023-05-06T13:00:57.019Z,99666.00
2023-05-06T13:03:24.999Z,99669.00
2023-05-06T13:05:54.310Z,99674.00
2023-05-06T13:08:22.297Z,99680.00
2023-05-06T13:10:50.228Z,99681.00
2023-05-06T13:13:18.168Z,99680.00
2023-05-06T13:15:46.429Z,99673.00
2023-05-06T13:18:14.321Z,99675.00
2023-05-06T13:20:42.279Z,99677.00
2023-05-06T13:23:11.470Z,99688.00
2023-05-06T13:25:51.753Z,99684.00
2023-05-06T13:28:25.164Z,99700.00
2023-05-06T13:30:53.624Z,99693.00
2023-05-06T13:33:21.513Z,99700.00
2023-05-06T13:35:49.374Z,99703.00
2023-05-06T13:38:18.545Z,99699.00
2023-05-06T13:40:48.747Z,99705.00
2023-05-06T13:43:16.669Z,99692.00
2023-05-06T13:45:45.118Z,99697.00
2023-05-06T13:48:13.657Z,99689.00
2023-05-06T13:50:42.896Z,99683.00
2023-05-06T13:53:11.699Z,99676.00
2023-05-06T13:55:42.530Z,99687.00
2023-05-06T13:58:10.963Z,99681.00
2023-05-06T14:00:39.076Z,99673.00
2023-05-06T14:03:07.757Z,99688.00
2023-05-06T14:05:35.997Z,99697.00
2023-05-06T14:08:03.889Z,99696.00
2023-05-06T14:10:31.978Z,99694.00
2023-05-06T14:13:01.216Z,99697.00
2023-05-06T14:15:29.165Z,99692.00
2023-05-06T14:17:57.341Z,99695.00
2023-05-06T14:20:25.458Z,99695.00
2023-05-06T14:22:53.309Z,99693.00
2023-05-06T14:25:26.629Z,99693.00
2023-05-06T14:27:55.314Z,99689.00
2023-05-06T14:30:25.654Z,99713.00
2023-05-06T14:32:53.594Z,99704.00
2023-05-06T14:35:21.890Z,99694.00
2023-05-06T14:37:49.775Z,99698.00
2023-05-06T14:40:17.926Z,99716.00
2023-05-06T14:42:46.168Z,99714.00
2023-05-06T14:45:15.781Z,99719.00
2023-05-06T14:47:45.218Z,99711.00
2023-05-06T14:50:13.854Z,99705.00
2023-05-06T14:52:42.495Z,99716.00
2023-05-06T14:55:12.344Z,99701.00
2023-05-06T14:57:40.455Z,99704.00
2023-05-06T15:00:10.209Z,99704.00
2023-05-06T15:02:40.540Z,99704.00
2023-05-06T15:05:11.954Z,99697.00
2023-05-06T15:07:40.441Z,99695.00
2023-05-06T15:10:09.185Z,99699.00
2023-05-06T15:12:37.375Z,99721.00
2023-05-06T15:15:07.580Z,99701.00
2023-05-06T15:17:35.505Z,99712.00
2023-05-06T15:20:04.260Z,99715.00
2023-05-06T15:22:33.501Z,99722.00
2023-05-06T15:25:02.894Z,99710.00
2023-05-06T15:27:31.785Z,99715.00
2023-05-06T15:30:04.128Z,99723.00
2023-05-06T15:32:32.211Z,99729.00
2023-05-06T15:35:00.143Z,99732.00
2023-05-06T15:37:28.032Z,99732.00
2023-05-06T15:39:57.630Z,99727.00
2023-05-06T15:42:25.581Z,99729.00
2023-05-06T15:44:54.921Z,99734.00
2023-05-06T15:47:22.753Z,99734.00
2023-05-06T15:49:54.848Z,99739.00
2023-05-06T15:52:23.478Z,99733.00
2023-05-06T15:54:51.758Z,99742.00
2023-05-06T15:57:20.910Z,99740.00
2023-05-06T15:59:48.803Z,99740.00
2023-05-06T16:04:47.759Z,99734.00
2023-05-06T16:07:16.612Z,99725.00
2023-05-06T16:09:44.520Z,99735.00
2023-05-06T16:12:12.408Z,99740.00
2023-05-06T16:14:41.687Z,99728.00
2023-05-06T16:17:09.661Z,99737.00
2023-05-06T16:19:37.558Z,99727.00
2023-05-06T16:22:05.472Z,99735.00
2023-05-06T16:24:33.351Z,99733.00
2023-05-06T16:27:01.242Z,99738.00
2023-05-06T16:29:29.110Z,99743.00
2023-05-06T16:31:58.334Z,99747.00
2023-05-06T16:34:26.291Z,99738.00
2023-05-06T16:36:54.405Z,99743.00
2023-05-06T16:39:22.284Z,99743.00
2023-05-06T16:41:50.123Z,99739.00
2023-05-06T16:44:17.972Z,99742.00
2023-05-06T16:46:45.877Z,99743.00
2023-05-06T16:49:15.133Z,99754.00
2023-05-06T16:51:42.964Z,99748.00
2023-05-06T16:54:10.842Z,99734.00
2023-05-06T16:56:50.954Z,99752.00
2023-05-06T16:59:22.154Z,99753.00
2023-05-06T17:01:50.747Z,99756.00
2023-05-06T17:04:19.943Z,99764.00
2023-05-06T17:06:47.782Z,99767.00
2023-05-06T17:09:16.320Z,99767.00
2023-05-06T17:11:44.212Z,99773.00
2023-05-06T17:14:12.089Z,99761.00
2023-05-06T17:16:40.296Z,99761.00
2023-05-06T17:19:08.242Z,99764.00
2023-05-06T17:21:37.477Z,99767.00
2023-05-06T17:24:06.418Z,99763.00
2023-05-06T17:26:35.749Z,99758.00
2023-05-06T17:29:03.984Z,99760.00
2023-05-06T17:31:32.070Z,99765.00
2023-05-06T17:33:59.972Z,99762.00
2023-05-06T17:36:27.862Z,99768.00
2023-05-06T17:39:04.812Z,99768.00
2023-05-06T17:41:33.617Z,99763.00
2023-05-06T17:44:01.736Z,99773.00
2023-05-06T17:46:29.799Z,99765.00
2023-05-06T17:48:57.710Z,99768.00
2023-05-06T17:51:26.673Z,99767.00
2023-05-06T17:53:54.600Z,99763.00
2023-05-06T17:56:23.788Z,99773.00
2023-05-06T17:58:51.624Z,99773.00
2023-05-06T18:01:19.565Z,99774.00
2023-05-06T18:03:47.615Z,99782.00
2023-05-06T18:06:15.571Z,99775.00
2023-05-06T18:08:44.356Z,99781.00
2023-05-06T18:11:12.375Z,99788.00
2023-05-06T18:13:41.731Z,99787.00
2023-05-06T18:16:09.742Z,99798.00
2023-05-06T18:18:37.629Z,99791.00
2023-05-06T18:21:05.580Z,99794.00
2023-05-06T18:23:33.972Z,99796.00
2023-05-06T18:26:05.287Z,99807.00
2023-05-06T18:28:37.102Z,99803.00
2023-05-06T18:31:07.201Z,99802.00
2023-05-06T18:33:35.567Z,99806.00
2023-05-06T18:36:03.965Z,99818.00
2023-05-06T18:38:31.953Z,99802.00
2023-05-06T18:40:59.820Z,99810.00
2023-05-06T18:43:28.391Z,99812.00
2023-05-06T18:45:56.309Z,99810.00
2023-05-06T18:48:25.968Z,99808.00
2023-05-06T18:50:54.229Z,99826.00
2023-05-06T18:53:22.140Z,99821.00
2023-05-06T18:55:50.797Z,99821.00
2023-05-06T18:58:19.178Z,99822.00
2023-05-06T19:00:47.327Z,99844.00
2023-05-06T19:03:15.254Z,99827.00
2023-05-06T19:05:44.569Z,99832.00
2023-05-06T19:08:13.692Z,99831.00
2023-05-06T19:10:41.621Z,99834.00
2023-05-06T19:13:09.630Z,99836.00
2023-05-06T19:15:37.602Z,99841.00
2023-05-06T19:18:06.026Z,99847.00
2023-05-06T19:20:34.756Z,99839.00
2023-05-06T19:23:04.880Z,99860.00
2023-05-06T19:25:35.111Z,99850.00
2023-05-06T19:28:03.248Z,99853.00
2023-05-06T19:30:33.850Z,99847.00
2023-05-06T19:33:03.133Z,99847.00
2023-05-06T19:35:31.478Z,99853.00
2023-05-06T19:37:59.927Z,99850.00
2023-05-06T19:40:29.274Z,99852.00
2023-05-06T19:43:03.622Z,99856.00
2023-05-06T19:45:32.425Z,99854.00
2023-05-06T19:48:01.035Z,99868.00
2023-05-06T19:50:29.492Z,99855.00
2023-05-06T19:52:57.472Z,99855.00
2023-05-06T19:55:25.526Z,99855.00
2023-05-06T19:57:57.056Z,99865.00
2023-05-06T20:00:27.914Z,99847.00
2023-05-06T20:02:58.218Z,99860.00
2023-05-06T20:05:29.522Z,99864.00
2023-05-06T20:07:59.512Z,99862.00
2023-05-06T20:10:27.807Z,99863.00
2023-05-06T20:12:58.057Z,99869.00
2023-05-06T20:15:26.567Z,99868.00
2023-05-06T20:17:54.675Z,99876.00
2023-05-06T20:20:23.010Z,99869.00
2023-05-06T20:22:50.842Z,99864.00
2023-05-06T20:25:18.907Z,99866.00
2023-05-06T20:27:47.231Z,99869.00
2023-05-06T20:30:16.625Z,99869.00
2023-05-06T20:32:44.647Z,99867.00
2023-05-06T20:35:13.084Z,99869.00
2023-05-06T20:37:41.333Z,99871.00
2023-05-06T20:40:10.992Z,99868.00
2023-05-06T20:42:38.874Z,99862.00
2023-05-06T20:45:08.679Z,99862.00
2023-05-06T20:47:38.062Z,99877.00
2023-05-06T20:50:07.006Z,99873.00
2023-05-06T20:52:34.983Z,99863.00
2023-05-06T20:55:03.742Z,99866.00
2023-05-06T20:57:31.626Z,99873.00
2023-05-06T20:59:59.527Z,99865.00
2023-05-06T21:02:30.032Z,99878.00
2023-05-06T21:04:59.328Z,99884.00
2023-05-06T21:07:27.232Z,99885.00
2023-05-06T21:09:55.100Z,99877.00
2023-05-06T21:12:22.961Z,99873.00
2023-05-06T21:14:50.858Z,99881.00
2023-05-06T21:17:18.956Z,99888.00
2023-05-06T21:19:48.516Z,99881.00
2023-05-06T21:22:17.751Z,99889.00
2023-05-06T21:24:45.660Z,99887.00
2023-05-06T21:27:13.534Z,99890.00
2023-05-06T21:29:41.402Z,99885.00
2023-05-06T21:32:09.419Z,99883.00
2023-05-06T21:34:37.595Z,99883.00
2023-05-06T21:37:05.576Z,99886.00
2023-05-06T21:39:34.814Z,99889.00
2023-05-06T21:42:02.852Z,99899.00
2023-05-06T21:44:30.947Z,99894.00
2023-05-06T21:46:58.852Z,99898.00
2023-05-06T21:49:26.887Z,99895.00
2023-05-06T21:51:54.731Z,99903.00
2023-05-06T21:54:24.145Z,99896.00
2023-05-06T21:56:53.438Z,99893.00
2023-05-06T21:59:21.571Z,99895.00
2023-05-06T22:01:49.499Z,99889.00
2023-05-06T22:04:18.801Z,99894.00
2023-05-06T22:06:46.686Z,99888.00
2023-05-06T22:09:14.541Z,99893.00
2023-05-06T22:11:42.377Z,99894.00
2023-05-06T22:14:11.534Z,99894.00
2023-05-06T22:16:39.495Z,99902.00
2023-05-06T22:19:07.699Z,99895.00
2023-05-06T22:21:36.105Z,99902.00
2023-05-06T22:24:04.016Z,99905.00
2023-05-06T22:26:33.003Z,99905.00
2023-05-06T22:29:01.031Z,99899.00
2023-05-06T22:31:30.381Z,99903.00
2023-05-06T22:34:03.343Z,99902.00
2023-05-06T22:36:33.030Z,99908.00
2023-05-06T22:39:01.084Z,99907.00
2023-05-06T22:41:28.990Z,99895.00
2023-05-06T22:43:57.212Z,99909.00
2023-05-06T22:46:25.153Z,99909.00
2023-05-06T22:48:54.387Z,99911.00
2023-05-06T22:51:22.255Z,99912.00
2023-05-06T22:53:50.090Z,99903.00
2023-05-06T22:56:18.938Z,99914.00
2023-05-06T22:58:46.841Z,99915.00
2023-05-06T23:01:14.824Z,99913.00
2023-05-06T23:03:42.775Z,99910.00
2023-05-06T23:06:12.009Z,99906.00
2023-05-06T23:08:39.924Z,99898.00
2023-05-06T23:11:07.785Z,99909.00
2023-05-06T23:13:36.413Z,99908.00
2023-05-06T23:16:05.144Z,99906.00
2023-05-06T23:18:33.125Z,99909.00
2023-05-06T23:21:01.063Z,99900.00
2023-05-06T23:23:30.608Z,99897.00
2023-05-06T23:25:58.512Z,99910.00
2023-05-06T23:28:26.938Z,99914.00
2023-05-06T23:30:54.845Z,99914.00
2023-05-06T23:33:22.810Z,99914.00
2023-05-06T23:35:50.807Z,99911.00
2023-05-06T23:38:18.681Z,99916.00
2023-05-06T23:40:47.900Z,99916.00
2023-05-06T23:43:15.763Z,99913.00
2023-05-06T23:45:43.694Z,99909.00
2023-05-06T23:48:11.709Z,99910.00
2023-05-06T23:50:39.632Z,99910.00
2023-05-06T23:53:07.552Z,99910.00
2023-05-06T23:55:35.791Z,99907.00
2023-05-06T23:58:04.998Z,99920.00
